Terminal Aerodrome Forecast
Issued by NWS

Home | Current Version | Previous Version | Graphics & Text | Print | Product List | Glossary On
Versions: 1 2 3 4 5 6 7 8 9 10 11 12 13 14 15 16 17 18
852
FTUS43 KGRB 191120
TAFAUW
TAF
KAUW 191120Z 1912/2012 32007KT P6SM SCT250
     FM192300 VRB03KT P6SM SCT250
      TEMPO 2008/2012 3SM BR=

USA.gov is the U.S. government's official web portal to all federal, state and local government web resources and services.